createdAt,value
2023-03-02T00:00:21.413Z,1.58
2023-03-02T00:01:21.416Z,1.49
2023-03-02T00:02:21.435Z,1.58
2023-03-02T00:03:21.410Z,1.50
2023-03-02T00:04:21.375Z,1.55
2023-03-02T00:05:21.361Z,1.49
2023-03-02T00:06:21.377Z,1.42
2023-03-02T00:07:21.350Z,1.45
2023-03-02T00:08:21.323Z,1.48
2023-03-02T00:09:21.325Z,1.50
2023-03-02T00:10:21.303Z,1.50
2023-03-02T00:11:21.293Z,1.42
2023-03-02T00:12:21.298Z,1.48
2023-03-02T00:13:21.279Z,1.45
2023-03-02T00:14:21.260Z,1.41
2023-03-02T00:15:21.267Z,1.52
2023-03-02T00:16:21.306Z,1.48
2023-03-02T00:17:21.235Z,1.49
2023-03-02T00:18:21.235Z,1.48
2023-03-02T00:19:21.209Z,1.53
2023-03-02T00:20:21.206Z,1.49
2023-03-02T00:21:21.181Z,1.55
2023-03-02T00:22:21.202Z,1.55
2023-03-02T00:23:21.165Z,1.55
2023-03-02T00:24:21.158Z,1.55
2023-03-02T00:25:21.142Z,1.49
2023-03-02T00:26:21.148Z,1.50
2023-03-02T00:27:21.119Z,1.55
2023-03-02T00:28:21.105Z,1.55
2023-03-02T00:29:21.106Z,1.45
2023-03-02T00:30:21.092Z,1.48
2023-03-02T00:31:21.154Z,1.52
2023-03-02T00:32:21.143Z,1.50
2023-03-02T00:33:21.050Z,1.41
2023-03-02T00:34:21.038Z,1.35
2023-03-02T00:35:21.088Z,1.44
2023-03-02T00:36:21.024Z,1.34
2023-03-02T00:37:21.012Z,1.38
2023-03-02T00:38:21.020Z,1.35
2023-03-02T00:39:20.989Z,1.31
2023-03-02T00:40:20.988Z,1.31
2023-03-02T00:41:20.986Z,1.31
2023-03-02T00:42:20.949Z,1.34
2023-03-02T00:43:20.941Z,1.26
2023-03-02T00:44:20.932Z,1.23
2023-03-02T00:45:20.931Z,1.26
2023-03-02T00:46:21.091Z,1.30
2023-03-02T00:47:20.904Z,1.16
2023-03-02T00:48:20.884Z,1.22
2023-03-02T00:49:20.874Z,1.24
2023-03-02T00:50:20.860Z,1.30
2023-03-02T00:51:20.883Z,1.17
2023-03-02T00:52:20.847Z,1.23
2023-03-02T00:53:20.834Z,1.24
2023-03-02T00:54:20.844Z,1.23
2023-03-02T00:55:20.820Z,1.13
2023-03-02T00:56:20.810Z,1.14
2023-03-02T00:57:20.809Z,1.30
2023-03-02T00:58:20.779Z,1.16
2023-03-02T00:59:20.773Z,1.28
2023-03-02T01:00:20.755Z,1.32
2023-03-02T01:01:20.744Z,1.28
2023-03-02T01:02:20.770Z,1.32
2023-03-02T01:03:20.763Z,1.28
2023-03-02T01:04:20.740Z,1.26
2023-03-02T01:05:20.708Z,1.32
2023-03-02T01:06:20.715Z,1.32
2023-03-02T01:07:20.692Z,1.37
2023-03-02T01:08:20.678Z,1.37
2023-03-02T01:09:20.675Z,1.35
2023-03-02T01:10:20.667Z,1.41
2023-03-02T01:11:20.659Z,1.41
2023-03-02T01:12:20.631Z,1.31
2023-03-02T01:13:20.637Z,1.40
2023-03-02T01:14:21.489Z,1.31
2023-03-02T01:15:20.594Z,1.32
2023-03-02T01:16:20.678Z,1.26
2023-03-02T01:17:20.584Z,1.31
2023-03-02T01:18:20.574Z,1.31
2023-03-02T01:19:20.552Z,1.22
2023-03-02T01:20:20.549Z,1.32
2023-03-02T01:21:20.533Z,1.32
2023-03-02T01:22:20.525Z,1.24
2023-03-02T01:23:20.536Z,1.22
2023-03-02T01:24:20.505Z,1.26
2023-03-02T01:25:20.485Z,1.22
2023-03-02T01:26:20.601Z,1.16
2023-03-02T01:27:20.982Z,1.08
2023-03-02T01:28:20.482Z,1.05
2023-03-02T01:29:20.464Z,1.05
2023-03-02T01:30:20.440Z,1.04
2023-03-02T01:31:20.458Z,1.04
2023-03-02T01:32:20.465Z,1.08
2023-03-02T01:33:20.401Z,0.99
2023-03-02T01:34:20.424Z,1.08
2023-03-02T01:35:20.501Z,1.02
2023-03-02T01:36:20.376Z,0.96
2023-03-02T01:37:20.359Z,0.96
2023-03-02T01:38:20.476Z,0.99
2023-03-02T01:39:20.338Z,1.01
2023-03-02T01:40:20.334Z,1.08
2023-03-02T01:41:20.325Z,0.95
2023-03-02T01:42:20.347Z,1.01
2023-03-02T01:43:20.293Z,0.92
2023-03-02T01:44:20.282Z,0.94
2023-03-02T01:45:20.277Z,0.98
2023-03-02T01:46:20.262Z,0.92
2023-03-02T01:47:20.254Z,0.92
2023-03-02T01:48:20.254Z,0.94
2023-03-02T01:49:20.227Z,1.01
2023-03-02T01:50:20.216Z,1.04
2023-03-02T01:51:20.210Z,1.04
2023-03-02T01:52:20.207Z,0.96
2023-03-02T01:53:20.200Z,0.98
2023-03-02T01:54:20.179Z,0.98
2023-03-02T01:55:20.158Z,1.01
2023-03-02T01:56:20.154Z,0.94
2023-03-02T01:57:20.137Z,1.01
2023-03-02T01:58:20.282Z,0.94
2023-03-02T01:59:20.140Z,0.92
2023-03-02T02:00:20.108Z,0.88
2023-03-02T02:01:20.191Z,0.87
2023-03-02T02:02:20.086Z,0.80
2023-03-02T02:03:20.073Z,0.86
2023-03-02T02:04:20.116Z,0.80
2023-03-02T02:05:20.065Z,0.83
2023-03-02T02:06:20.053Z,0.76
2023-03-02T02:07:20.042Z,0.78
2023-03-02T02:08:20.022Z,0.81
2023-03-02T02:09:20.008Z,0.81
2023-03-02T02:10:20.005Z,0.74
2023-03-02T02:11:19.996Z,0.76
2023-03-02T02:12:19.993Z,0.78
2023-03-02T02:13:19.967Z,0.62
2023-03-02T02:14:19.983Z,0.63
2023-03-02T02:15:19.940Z,0.65
2023-03-02T02:16:20.010Z,0.56
2023-03-02T02:17:19.947Z,0.63
2023-03-02T02:18:19.916Z,0.63
2023-03-02T02:19:19.899Z,0.59
2023-03-02T02:20:19.898Z,0.58
2023-03-02T02:21:19.882Z,0.62
2023-03-02T02:22:19.872Z,0.63
2023-03-02T02:23:19.886Z,0.63
2023-03-02T02:24:19.851Z,0.73
2023-03-02T02:25:19.837Z,0.68
2023-03-02T02:26:19.823Z,0.66
2023-03-02T02:27:19.814Z,0.68
2023-03-02T02:28:19.825Z,0.66
2023-03-02T02:29:19.788Z,0.69
2023-03-02T02:30:19.825Z,0.70
2023-03-02T02:31:19.847Z,0.73
2023-03-02T02:32:19.883Z,0.81
2023-03-02T02:33:19.745Z,0.74
2023-03-02T02:34:19.749Z,0.73
2023-03-02T02:35:19.803Z,0.86
2023-03-02T02:36:19.721Z,0.81
2023-03-02T02:37:19.709Z,0.76
2023-03-02T02:38:19.699Z,0.86
2023-03-02T02:39:19.713Z,0.83
2023-03-02T02:40:19.683Z,0.83
2023-03-02T02:41:19.670Z,0.92
2023-03-02T02:42:19.660Z,0.95
2023-03-02T02:43:19.655Z,0.91
2023-03-02T02:44:19.654Z,0.86
2023-03-02T02:45:19.621Z,0.74
2023-03-02T02:46:19.673Z,0.83
2023-03-02T02:47:19.598Z,0.78
2023-03-02T02:48:19.592Z,0.73
2023-03-02T02:49:19.578Z,0.76
2023-03-02T02:50:19.566Z,0.73
2023-03-02T02:51:19.552Z,0.70
2023-03-02T02:52:19.572Z,0.62
2023-03-02T02:53:19.550Z,0.66
2023-03-02T02:54:19.522Z,0.66
2023-03-02T02:55:19.517Z,0.63
2023-03-02T02:56:19.510Z,0.65
2023-03-02T02:57:19.489Z,0.59
2023-03-02T02:58:19.497Z,0.52
2023-03-02T02:59:19.466Z,0.49
2023-03-02T03:00:19.458Z,0.50
2023-03-02T03:01:19.522Z,0.56
2023-03-02T03:02:19.454Z,0.50
2023-03-02T03:03:19.442Z,0.49
2023-03-02T03:04:19.548Z,0.49
2023-03-02T03:05:19.395Z,0.43
2023-03-02T03:06:19.484Z,0.40
2023-03-02T03:07:19.417Z,0.46
2023-03-02T03:08:19.367Z,0.44
2023-03-02T03:09:19.421Z,0.46
2023-03-02T03:10:19.378Z,0.32
2023-03-02T03:11:19.345Z,0.31
2023-03-02T03:12:19.334Z,0.32
2023-03-02T03:13:19.315Z,0.40
2023-03-02T03:14:19.336Z,0.28
2023-03-02T03:15:19.307Z,0.37
2023-03-02T03:16:19.370Z,0.26
2023-03-02T03:17:19.293Z,0.19
2023-03-02T03:18:19.286Z,0.19
2023-03-02T03:19:19.248Z,0.21
2023-03-02T03:20:19.242Z,0.19
2023-03-02T03:21:19.233Z,0.28
2023-03-02T03:22:19.223Z,0.25
2023-03-02T03:23:19.202Z,0.22
2023-03-02T03:24:19.209Z,0.12
2023-03-02T03:25:19.190Z,0.16
2023-03-02T03:26:19.241Z,0.16
2023-03-02T03:27:19.177Z,0.10
2023-03-02T03:28:19.146Z,0.03
2023-03-02T03:29:19.129Z,0.12
2023-03-02T03:30:19.151Z,0.15
2023-03-02T03:31:19.198Z,0.01
2023-03-02T03:32:19.242Z,0.05
2023-03-02T03:33:19.093Z,0.05
2023-03-02T03:34:19.102Z,0.08
2023-03-02T03:35:19.215Z,0.03
2023-03-02T03:36:19.058Z,0.01
2023-03-02T03:37:19.052Z,0.10
2023-03-02T03:38:19.039Z,0.05
2023-03-02T03:39:19.038Z,0.04
2023-03-02T03:40:19.015Z,0.01
2023-03-02T03:41:19.026Z,-0.02
2023-03-02T03:42:18.992Z,-0.03
2023-03-02T03:43:18.981Z,-0.03
2023-03-02T03:44:18.981Z,-0.06
2023-03-02T03:45:18.964Z,0.04
2023-03-02T03:46:18.981Z,0.03
2023-03-02T03:47:18.959Z,-0.11
2023-03-02T03:48:18.927Z,0.01
2023-03-02T03:49:18.914Z,-0.08
2023-03-02T03:50:18.929Z,-0.08
2023-03-02T03:51:18.907Z,-0.07
2023-03-02T03:52:18.878Z,-0.10
2023-03-02T03:53:18.876Z,-0.08
2023-03-02T03:54:18.865Z,-0.06
2023-03-02T03:55:18.855Z,-0.03
2023-03-02T03:56:18.850Z,-0.02
2023-03-02T03:57:18.847Z,0.04
2023-03-02T03:58:18.862Z,-0.06
2023-03-02T03:59:18.803Z,0.01
2023-03-02T04:00:18.800Z,0.08
2023-03-02T04:01:18.786Z,0.07
2023-03-02T04:02:18.845Z,0.01
2023-03-02T04:03:18.765Z,0.10
2023-03-02T04:04:18.753Z,0.12
2023-03-02T04:05:18.742Z,0.19
2023-03-02T04:06:18.755Z,0.18
2023-03-02T04:07:18.715Z,0.18
2023-03-02T04:08:18.731Z,0.26
2023-03-02T04:09:18.703Z,0.12
2023-03-02T04:10:18.689Z,0.16
2023-03-02T04:11:18.677Z,0.19
2023-03-02T04:12:18.669Z,0.18
2023-03-02T04:13:18.657Z,0.15
2023-03-02T04:14:18.667Z,0.10
2023-03-02T04:15:18.646Z,0.05
2023-03-02T04:16:18.701Z,0.04
2023-03-02T04:17:18.615Z,-0.03
2023-03-02T04:18:18.612Z,-0.07
2023-03-02T04:19:18.599Z,-0.11
2023-03-02T04:20:18.592Z,-0.14
2023-03-02T04:21:18.570Z,-0.10
2023-03-02T04:22:18.582Z,-0.15
2023-03-02T04:23:18.550Z,-0.14
2023-03-02T04:24:18.544Z,-0.10
2023-03-02T04:25:18.529Z,-0.21
2023-03-02T04:26:18.516Z,-0.18
2023-03-02T04:27:18.503Z,-0.23
2023-03-02T04:28:18.500Z,-0.32
2023-03-02T04:29:18.497Z,-0.23
2023-03-02T04:30:18.475Z,-0.34
2023-03-02T04:31:18.509Z,-0.29
2023-03-02T04:32:18.539Z,-0.23
2023-03-02T04:33:18.450Z,-0.23
2023-03-02T04:34:18.448Z,-0.29
2023-03-02T04:35:18.467Z,-0.28
2023-03-02T04:36:18.416Z,-0.23
2023-03-02T04:37:18.404Z,-0.35
2023-03-02T04:38:18.432Z,-0.31
2023-03-02T04:39:18.403Z,-0.32
2023-03-02T04:40:18.382Z,-0.35
2023-03-02T04:41:18.371Z,-0.39
2023-03-02T04:42:18.357Z,-0.39
2023-03-02T04:43:18.342Z,-0.31
2023-03-02T04:44:18.357Z,-0.32
2023-03-02T04:45:18.321Z,-0.35
2023-03-02T04:46:18.392Z,-0.35
2023-03-02T04:47:18.303Z,-0.34
2023-03-02T04:48:18.299Z,-0.35
2023-03-02T04:49:18.284Z,-0.34
2023-03-02T04:50:18.282Z,-0.35
2023-03-02T04:51:18.265Z,-0.38
2023-03-02T04:52:18.250Z,-0.46
2023-03-02T04:53:18.247Z,-0.39
2023-03-02T04:54:18.273Z,-0.36
2023-03-02T04:55:18.218Z,-0.46
2023-03-02T04:56:18.219Z,-0.34
2023-03-02T04:57:18.192Z,-0.29
2023-03-02T04:58:18.190Z,-0.46
2023-03-02T04:59:18.181Z,-0.39
2023-03-02T05:00:18.202Z,-0.44
2023-03-02T05:01:18.152Z,-0.43
2023-03-02T05:02:18.213Z,-0.41
2023-03-02T05:03:18.132Z,-0.46
2023-03-02T05:04:18.155Z,-0.29
2023-03-02T05:05:18.122Z,-0.44
2023-03-02T05:06:18.103Z,-0.35
2023-03-02T05:07:18.092Z,-0.34
2023-03-02T05:08:18.076Z,-0.34
2023-03-02T05:09:18.061Z,-0.43
2023-03-02T05:10:18.095Z,-0.49
2023-03-02T05:11:18.038Z,-0.41
2023-03-02T05:12:18.032Z,-0.39
2023-03-02T05:13:18.016Z,-0.49
2023-03-02T05:14:18.010Z,-0.35
2023-03-02T05:15:18.016Z,-0.34
2023-03-02T05:16:18.063Z,-0.35
2023-03-02T05:17:17.990Z,-0.41
2023-03-02T05:18:17.968Z,-0.29
2023-03-02T05:19:17.959Z,-0.36
2023-03-02T05:20:17.944Z,-0.29
2023-03-02T05:21:17.943Z,-0.35
2023-03-02T05:22:17.927Z,-0.21
2023-03-02T05:23:17.930Z,-0.23
2023-03-02T05:24:17.904Z,-0.25
2023-03-02T05:25:17.888Z,-0.20
2023-03-02T05:26:17.967Z,-0.13
2023-03-02T05:27:17.868Z,-0.25
2023-03-02T05:28:17.857Z,-0.21
2023-03-02T05:29:17.858Z,-0.20
2023-03-02T05:30:17.840Z,-0.14
2023-03-02T05:31:17.934Z,-0.13
2023-03-02T05:32:17.856Z,-0.03
2023-03-02T05:33:17.818Z,-0.15
2023-03-02T05:34:17.809Z,-0.11
2023-03-02T05:35:17.787Z,-0.13
2023-03-02T05:36:20.269Z,-0.06
2023-03-02T05:37:17.767Z,-0.10
2023-03-02T05:38:17.760Z,-0.13
2023-03-02T05:39:24.838Z,-0.13
2023-03-02T05:40:17.726Z,-0.15
2023-03-02T05:41:17.733Z,-0.13
2023-03-02T05:42:17.722Z,-0.15
2023-03-02T05:43:17.737Z,-0.14
2023-03-02T05:44:17.703Z,-0.17
2023-03-02T05:45:17.683Z,-0.18
2023-03-02T05:46:18.193Z,-0.17
2023-03-02T05:47:17.672Z,-0.18
2023-03-02T05:48:17.651Z,-0.15
2023-03-02T05:49:17.679Z,-0.10
2023-03-02T05:50:17.667Z,-0.15
2023-03-02T05:51:17.642Z,-0.13
2023-03-02T05:52:17.627Z,-0.14
2023-03-02T05:53:17.645Z,-0.17
2023-03-02T05:54:17.579Z,-0.15
2023-03-02T05:55:17.577Z,-0.07
2023-03-02T05:56:17.601Z,-0.10
2023-03-02T05:57:17.552Z,-0.14
2023-03-02T05:58:17.615Z,-0.13
2023-03-02T05:59:17.543Z,0.00
2023-03-02T06:00:17.518Z,-0.13
2023-03-02T06:01:17.525Z,-0.13
2023-03-02T06:02:17.540Z,-0.13
2023-03-02T06:03:17.525Z,-0.11
2023-03-02T06:04:17.469Z,-0.15
2023-03-02T06:05:17.463Z,-0.13
2023-03-02T06:06:17.457Z,-0.11
2023-03-02T06:07:17.465Z,-0.13
2023-03-02T06:08:17.425Z,-0.17
2023-03-02T06:09:17.416Z,-0.08
2023-03-02T06:10:17.418Z,-0.15
2023-03-02T06:11:17.400Z,-0.23
2023-03-02T06:12:17.396Z,-0.17
2023-03-02T06:13:17.379Z,-0.17
2023-03-02T06:14:17.392Z,-0.18
2023-03-02T06:15:17.355Z,-0.18
2023-03-02T06:16:17.368Z,-0.26
2023-03-02T06:17:17.336Z,-0.26
2023-03-02T06:18:17.319Z,-0.23
2023-03-02T06:19:17.311Z,-0.25
2023-03-02T06:20:17.293Z,-0.31
2023-03-02T06:21:17.287Z,-0.32
2023-03-02T06:22:17.283Z,-0.28
2023-03-02T06:23:17.265Z,-0.41
2023-03-02T06:24:17.262Z,-0.43
2023-03-02T06:25:17.240Z,-0.39
2023-03-02T06:26:17.227Z,-0.29
2023-03-02T06:27:17.228Z,-0.39
2023-03-02T06:28:17.211Z,-0.36
2023-03-02T06:29:17.206Z,-0.36
2023-03-02T06:30:17.213Z,-0.29
2023-03-02T06:31:17.207Z,-0.17
2023-03-02T06:32:17.326Z,-0.26
2023-03-02T06:33:17.188Z,-0.18
2023-03-02T06:34:17.146Z,-0.11
2023-03-02T06:35:17.229Z,-0.15
2023-03-02T06:36:17.322Z,-0.18
2023-03-02T06:37:17.116Z,-0.10
2023-03-02T06:38:17.114Z,-0.07
2023-03-02T06:39:17.108Z,-0.13
2023-03-02T06:40:17.083Z,-0.13
2023-03-02T06:41:17.100Z,-0.07
2023-03-02T06:42:17.060Z,-0.10
2023-03-02T06:43:17.066Z,-0.11
2023-03-02T06:44:17.033Z,-0.08
2023-03-02T06:45:17.061Z,0.04
2023-03-02T06:46:17.207Z,0.05
2023-03-02T06:47:17.025Z,0.08
2023-03-02T06:48:17.002Z,0.15
2023-03-02T06:49:16.987Z,0.19
2023-03-02T06:50:17.000Z,0.15
2023-03-02T06:51:16.970Z,0.18
2023-03-02T06:52:16.947Z,0.21
2023-03-02T06:53:16.951Z,0.21
2023-03-02T06:54:16.931Z,0.23
2023-03-02T06:55:16.926Z,0.26
2023-03-02T06:56:16.909Z,0.21
2023-03-02T06:57:16.905Z,0.34
2023-03-02T06:58:16.897Z,0.28
2023-03-02T06:59:16.876Z,0.31
2023-03-02T07:00:16.880Z,0.29
2023-03-02T07:01:16.924Z,0.31
2023-03-02T07:02:16.947Z,0.40
2023-03-02T07:03:16.883Z,0.40
2023-03-02T07:04:16.829Z,0.46
2023-03-02T07:05:16.831Z,0.39
2023-03-02T07:06:16.805Z,0.44
2023-03-02T07:07:16.793Z,0.44
2023-03-02T07:08:16.778Z,0.43
2023-03-02T07:09:16.768Z,0.49
2023-03-02T07:10:16.766Z,0.50
2023-03-02T07:11:16.761Z,0.52
2023-03-02T07:12:16.730Z,0.50
2023-03-02T07:13:16.737Z,0.49
2023-03-02T07:14:16.732Z,0.58
2023-03-02T07:15:16.716Z,0.58
2023-03-02T07:16:16.783Z,0.63
2023-03-02T07:17:16.688Z,0.62
2023-03-02T07:18:16.697Z,0.60
2023-03-02T07:19:16.679Z,0.62
2023-03-02T07:20:16.655Z,0.60
2023-03-02T07:21:16.638Z,0.65
2023-03-02T07:22:16.631Z,0.62
2023-03-02T07:23:16.627Z,0.74
2023-03-02T07:24:16.601Z,0.74
2023-03-02T07:25:16.599Z,0.78
2023-03-02T07:26:16.576Z,0.80
2023-03-02T07:27:16.582Z,0.80
2023-03-02T07:28:16.568Z,0.70
2023-03-02T07:29:16.548Z,0.76
2023-03-02T07:30:16.553Z,0.74
2023-03-02T07:31:16.580Z,0.80
2023-03-02T07:32:16.540Z,0.87
2023-03-02T07:33:16.510Z,0.91
2023-03-02T07:34:16.517Z,0.84
2023-03-02T07:35:16.487Z,0.84
2023-03-02T07:36:16.477Z,0.86
2023-03-02T07:37:16.472Z,0.83
2023-03-02T07:38:16.447Z,0.92
2023-03-02T07:39:16.465Z,0.92
2023-03-02T07:40:16.443Z,0.94
2023-03-02T07:41:16.426Z,1.01
2023-03-02T07:42:16.412Z,1.04
2023-03-02T07:43:16.417Z,0.98
2023-03-02T07:44:16.397Z,1.05
2023-03-02T07:45:16.382Z,1.04
2023-03-02T07:46:16.540Z,1.16
2023-03-02T07:47:16.371Z,1.13
2023-03-02T07:48:16.348Z,1.16
2023-03-02T07:49:16.335Z,1.32
2023-03-02T07:50:16.349Z,1.37
2023-03-02T07:51:16.313Z,1.32
2023-03-02T07:52:16.319Z,1.31
2023-03-02T07:53:16.290Z,1.26
2023-03-02T07:54:16.278Z,1.40
2023-03-02T07:55:16.298Z,1.28
2023-03-02T07:56:16.269Z,1.44
2023-03-02T07:57:16.415Z,1.41
2023-03-02T07:58:16.245Z,1.41
2023-03-02T07:59:16.255Z,1.40
2023-03-02T08:00:16.220Z,1.26
2023-03-02T08:01:16.224Z,1.35
2023-03-02T08:02:16.239Z,1.34
2023-03-02T08:03:16.283Z,1.42
2023-03-02T08:04:16.172Z,1.41
2023-03-02T08:05:16.161Z,1.37
2023-03-02T08:06:16.185Z,1.49
2023-03-02T08:07:16.140Z,1.59
2023-03-02T08:08:16.179Z,1.63
2023-03-02T08:09:16.988Z,1.68
2023-03-02T08:10:16.123Z,1.62
2023-03-02T08:11:16.115Z,1.77
2023-03-02T08:12:16.099Z,1.73
2023-03-02T08:13:16.089Z,1.81
2023-03-02T08:14:16.112Z,1.84
2023-03-02T08:15:16.072Z,1.87
2023-03-02T08:16:16.114Z,1.89
2023-03-02T08:17:16.144Z,1.94
2023-03-02T08:18:16.042Z,1.92
2023-03-02T08:19:16.014Z,2.11
2023-03-02T08:20:16.021Z,2.13
2023-03-02T08:21:15.999Z,2.11
2023-03-02T08:22:15.996Z,2.29
2023-03-02T08:23:15.982Z,2.47
2023-03-02T08:24:15.952Z,2.57
2023-03-02T08:25:15.944Z,2.72
2023-03-02T08:26:17.562Z,2.56
2023-03-02T08:27:15.924Z,2.60
2023-03-02T08:28:15.908Z,2.62
2023-03-02T08:29:15.911Z,2.67
2023-03-02T08:30:15.915Z,2.62
2023-03-02T08:31:15.945Z,2.51
2023-03-02T08:32:15.929Z,2.65
2023-03-02T08:33:15.872Z,2.89
2023-03-02T08:34:15.842Z,3.00
2023-03-02T08:35:15.854Z,3.22
2023-03-02T08:36:15.821Z,3.32
2023-03-02T08:37:15.812Z,3.48
2023-03-02T08:38:15.841Z,3.47
2023-03-02T08:39:15.792Z,3.59
2023-03-02T08:40:15.787Z,3.58
2023-03-02T08:41:15.771Z,3.73
2023-03-02T08:42:15.757Z,3.70
2023-03-02T08:43:15.751Z,3.76
2023-03-02T08:44:15.738Z,3.87
2023-03-02T08:45:15.725Z,3.99
2023-03-02T08:46:15.775Z,4.14
2023-03-02T08:47:15.712Z,4.02
2023-03-02T08:48:15.696Z,4.10
2023-03-02T08:49:15.694Z,4.02
2023-03-02T08:50:15.675Z,4.10
2023-03-02T08:51:15.657Z,4.37
2023-03-02T08:52:15.642Z,4.28
2023-03-02T08:53:15.636Z,4.31
2023-03-02T08:54:15.648Z,4.35
2023-03-02T08:55:15.652Z,4.31
2023-03-02T08:56:15.598Z,4.22
2023-03-02T08:57:15.602Z,4.24
2023-03-02T08:58:15.580Z,4.32
2023-03-02T08:59:15.566Z,4.30
2023-03-02T09:00:15.573Z,4.52
2023-03-02T09:01:15.583Z,4.48
2023-03-02T09:02:15.532Z,4.34
2023-03-02T09:03:15.529Z,4.30
2023-03-02T09:04:15.587Z,4.44
2023-03-02T09:05:15.505Z,4.31
2023-03-02T09:06:15.494Z,4.30
2023-03-02T09:07:16.608Z,4.26
2023-03-02T09:08:15.486Z,4.38
2023-03-02T09:09:15.477Z,4.40
2023-03-02T09:10:15.470Z,4.44
2023-03-02T09:11:15.447Z,4.32
2023-03-02T09:12:15.423Z,4.41
2023-03-02T09:13:15.416Z,4.44
2023-03-02T09:14:15.426Z,4.53
2023-03-02T09:15:15.395Z,4.67
2023-03-02T09:16:15.457Z,4.66
2023-03-02T09:17:15.366Z,4.67
2023-03-02T09:18:15.356Z,4.67
2023-03-02T09:19:15.352Z,4.74
2023-03-02T09:20:15.354Z,4.77
2023-03-02T09:21:15.337Z,4.73
2023-03-02T09:22:15.345Z,4.87
2023-03-02T09:23:15.307Z,4.82
2023-03-02T09:24:15.301Z,4.68
2023-03-02T09:25:15.287Z,4.63
2023-03-02T09:26:15.344Z,4.56
2023-03-02T09:27:15.263Z,4.66
2023-03-02T09:28:15.252Z,4.67
2023-03-02T09:29:15.252Z,4.60
2023-03-02T09:30:15.243Z,4.70
2023-03-02T09:31:15.233Z,4.74
2023-03-02T09:32:15.397Z,4.94
2023-03-02T09:33:15.272Z,5.15
2023-03-02T09:34:15.193Z,5.39
2023-03-02T09:35:15.179Z,5.56
2023-03-02T09:36:15.177Z,5.75
2023-03-02T09:37:15.158Z,5.82
2023-03-02T09:38:15.251Z,5.66
2023-03-02T09:39:15.143Z,5.66
2023-03-02T09:40:15.130Z,5.71
2023-03-02T09:41:15.122Z,5.83
2023-03-02T09:42:15.142Z,5.86
2023-03-02T09:43:15.105Z,5.82
2023-03-02T09:44:15.091Z,5.75
2023-03-02T09:45:15.092Z,5.66
2023-03-02T09:46:15.164Z,5.71
2023-03-02T09:47:16.525Z,5.68
2023-03-02T09:48:15.049Z,5.84
2023-03-02T09:49:15.041Z,5.89
2023-03-02T09:50:15.022Z,5.93
2023-03-02T09:51:15.017Z,5.90
2023-03-02T09:52:14.998Z,5.69
2023-03-02T09:53:14.982Z,5.82
2023-03-02T09:54:14.978Z,5.89
2023-03-02T09:55:14.980Z,5.94
2023-03-02T09:56:14.967Z,6.07
2023-03-02T09:57:14.934Z,6.16
2023-03-02T09:58:14.982Z,6.33
2023-03-02T09:59:14.918Z,6.48
2023-03-02T10:00:19.627Z,6.57
2023-03-02T10:01:16.780Z,6.57
2023-03-02T10:02:14.887Z,6.64
2023-03-02T10:03:17.418Z,6.75
2023-03-02T10:04:15.025Z,6.81
2023-03-02T10:05:14.880Z,6.84
2023-03-02T10:06:14.842Z,6.74
2023-03-02T10:07:14.825Z,6.75
2023-03-02T10:08:14.821Z,6.78
2023-03-02T10:09:14.810Z,6.88
2023-03-02T10:10:14.793Z,6.85
2023-03-02T10:11:14.794Z,6.54
2023-03-02T10:12:14.766Z,6.33
2023-03-02T10:13:14.773Z,6.33
2023-03-02T10:14:14.775Z,6.27
2023-03-02T10:15:14.753Z,6.22
2023-03-02T10:16:14.781Z,6.16
2023-03-02T10:17:14.711Z,6.08
2023-03-02T10:18:14.739Z,5.97
2023-03-02T10:19:14.690Z,5.87
2023-03-02T10:20:14.692Z,5.98
2023-03-02T10:21:14.675Z,6.09
2023-03-02T10:22:14.670Z,6.24
2023-03-02T10:23:14.642Z,6.31
2023-03-02T10:24:14.654Z,6.38
2023-03-02T10:25:14.649Z,6.45
2023-03-02T10:26:14.640Z,6.57
2023-03-02T10:27:14.613Z,6.74
2023-03-02T10:28:14.593Z,6.81
2023-03-02T10:29:14.584Z,6.79
2023-03-02T10:30:14.625Z,6.84
2023-03-02T10:31:14.653Z,6.89
2023-03-02T10:32:14.710Z,6.89
2023-03-02T10:33:14.551Z,6.95
2023-03-02T10:34:14.529Z,7.03
2023-03-02T10:35:14.553Z,6.87
2023-03-02T10:36:14.521Z,6.85
2023-03-02T10:37:14.565Z,7.07
2023-03-02T10:38:14.481Z,7.05
2023-03-02T10:39:14.476Z,7.10
2023-03-02T10:40:14.456Z,6.93
2023-03-02T10:41:14.446Z,6.89
2023-03-02T10:42:14.481Z,6.85
2023-03-02T10:43:14.438Z,6.81
2023-03-02T10:44:14.418Z,6.78
2023-03-02T10:45:14.400Z,6.87
2023-03-02T10:46:14.590Z,6.74
2023-03-02T10:47:14.379Z,6.24
2023-03-02T10:48:14.406Z,6.05
2023-03-02T10:49:20.996Z,6.08
2023-03-02T10:50:15.347Z,6.28
2023-03-02T10:51:14.332Z,6.28
2023-03-02T10:52:14.325Z,6.51
2023-03-02T10:53:14.325Z,6.63
2023-03-02T10:54:14.314Z,6.74
2023-03-02T10:55:14.292Z,6.63
2023-03-02T10:56:14.287Z,6.63
2023-03-02T10:57:14.265Z,6.52
2023-03-02T10:58:14.264Z,6.64
2023-03-02T10:59:14.268Z,6.66
2023-03-02T11:00:14.242Z,6.70
2023-03-02T11:01:14.296Z,6.49
2023-03-02T11:02:14.358Z,6.45
2023-03-02T11:03:14.192Z,6.54
2023-03-02T11:04:14.231Z,6.57
2023-03-02T11:05:14.225Z,6.49
2023-03-02T11:06:14.165Z,6.42
2023-03-02T11:07:14.153Z,6.45
2023-03-02T11:08:14.142Z,6.64
2023-03-02T11:09:14.142Z,6.92
2023-03-02T11:10:14.146Z,7.07
2023-03-02T11:11:14.114Z,7.15
2023-03-02T11:12:14.100Z,7.18
2023-03-02T11:13:14.114Z,7.13
2023-03-02T11:14:14.097Z,6.97
2023-03-02T11:15:14.063Z,6.97
2023-03-02T11:16:14.224Z,7.14
2023-03-02T11:17:14.037Z,7.25
2023-03-02T11:18:14.163Z,7.33
2023-03-02T11:19:14.022Z,7.38
2023-03-02T11:20:14.019Z,7.36
2023-03-02T11:21:14.009Z,7.31
2023-03-02T11:22:13.987Z,7.23
2023-03-02T11:23:13.980Z,7.28
2023-03-02T11:24:14.090Z,7.36
2023-03-02T11:25:13.956Z,7.33
2023-03-02T11:26:13.948Z,7.29
2023-03-02T11:27:13.932Z,7.32
2023-03-02T11:28:13.926Z,7.32
2023-03-02T11:29:13.932Z,7.31
2023-03-02T11:30:13.910Z,7.20
2023-03-02T11:31:13.926Z,7.20
2023-03-02T11:32:13.942Z,7.33
2023-03-02T11:33:13.882Z,7.33
2023-03-02T11:34:17.840Z,7.58
2023-03-02T11:35:13.862Z,7.57
2023-03-02T11:36:13.840Z,7.69
2023-03-02T11:37:13.813Z,7.69
2023-03-02T11:38:13.812Z,7.54
2023-03-02T11:39:13.793Z,7.53
2023-03-02T11:40:20.913Z,7.70
2023-03-02T11:41:13.770Z,7.60
2023-03-02T11:42:13.780Z,7.72
2023-03-02T11:43:13.746Z,7.80
2023-03-02T11:44:13.748Z,7.70
2023-03-02T11:45:13.851Z,7.76
2023-03-02T11:46:21.466Z,7.61
2023-03-02T11:47:14.782Z,7.61
2023-03-02T11:48:13.699Z,7.70
2023-03-02T11:49:13.682Z,7.53
2023-03-02T11:50:13.702Z,7.48
2023-03-02T11:51:13.675Z,7.57
2023-03-02T11:52:15.928Z,7.63
2023-03-02T11:53:13.683Z,7.79
2023-03-02T11:54:13.640Z,7.70
2023-03-02T11:55:13.638Z,7.72
2023-03-02T11:56:13.609Z,7.76
2023-03-02T11:57:13.596Z,7.88
2023-03-02T11:58:13.599Z,7.93
2023-03-02T11:59:13.577Z,7.97
2023-03-02T12:00:13.582Z,7.77
2023-03-02T12:01:13.542Z,7.83
2023-03-02T12:02:13.578Z,7.83
2023-03-02T12:03:13.535Z,7.82
2023-03-02T12:04:13.518Z,7.82
2023-03-02T12:05:13.570Z,7.75
2023-03-02T12:06:13.528Z,7.87
2023-03-02T12:07:13.477Z,7.95
2023-03-02T12:08:13.472Z,8.01
2023-03-02T12:09:13.552Z,8.23
2023-03-02T12:10:13.449Z,8.28
2023-03-02T12:11:13.450Z,8.16
2023-03-02T12:12:13.426Z,8.03
2023-03-02T12:13:13.423Z,7.98
2023-03-02T12:14:13.404Z,8.01
2023-03-02T12:15:13.391Z,7.91
2023-03-02T12:16:13.461Z,8.06
2023-03-02T12:17:13.380Z,8.00
2023-03-02T12:18:13.359Z,8.19
2023-03-02T12:19:13.363Z,8.23
2023-03-02T12:20:13.342Z,8.16
2023-03-02T12:21:13.368Z,8.16
2023-03-02T12:22:13.341Z,8.13
2023-03-02T12:23:13.305Z,8.19
2023-03-02T12:24:13.312Z,8.33
2023-03-02T12:25:13.292Z,8.38
2023-03-02T12:26:13.270Z,8.61
2023-03-02T12:27:13.295Z,8.70
2023-03-02T12:28:13.287Z,8.60
2023-03-02T12:29:13.243Z,8.55
2023-03-02T12:30:13.282Z,8.56
2023-03-02T12:31:13.312Z,8.42
2023-03-02T12:32:13.367Z,8.41
2023-03-02T12:33:13.225Z,8.51
2023-03-02T12:34:13.247Z,8.61
2023-03-02T12:35:13.182Z,8.52
2023-03-02T12:36:13.177Z,8.56
2023-03-02T12:37:13.144Z,8.66
2023-03-02T12:38:13.297Z,8.53
2023-03-02T12:39:13.157Z,8.52
2023-03-02T12:40:13.136Z,8.52
2023-03-02T12:41:13.101Z,8.56
2023-03-02T12:42:13.156Z,8.46
2023-03-02T12:43:13.132Z,8.46
2023-03-02T12:44:13.113Z,8.49
2023-03-02T12:45:13.161Z,8.64
2023-03-02T12:46:13.134Z,8.74
2023-03-02T12:47:13.538Z,8.91
2023-03-02T12:48:13.232Z,8.88
2023-03-02T12:49:13.631Z,8.92
2023-03-02T12:50:13.090Z,8.95
2023-03-02T12:51:13.117Z,9.04
2023-03-02T12:52:13.158Z,8.97
2023-03-02T12:53:13.002Z,8.84
2023-03-02T12:54:12.986Z,8.71
2023-03-02T12:55:12.955Z,8.66
2023-03-02T12:56:13.027Z,8.69
2023-03-02T12:57:12.924Z,8.63
2023-03-02T12:58:12.922Z,8.61
2023-03-02T12:59:12.912Z,8.58
2023-03-02T13:00:12.892Z,8.58
2023-03-02T13:01:12.977Z,8.63
2023-03-02T13:02:12.947Z,8.69
2023-03-02T13:03:12.855Z,8.71
2023-03-02T13:04:12.904Z,8.76
2023-03-02T13:05:12.844Z,8.78
2023-03-02T13:06:12.830Z,8.76
2023-03-02T13:07:12.878Z,8.71
2023-03-02T13:08:12.807Z,8.84
2023-03-02T13:09:12.789Z,8.81
2023-03-02T13:10:12.863Z,8.89
2023-03-02T13:11:12.776Z,8.87
2023-03-02T13:12:12.922Z,8.87
2023-03-02T13:13:12.865Z,8.94